Norwood Park, Illinois
Current Conditions -  °F | °C
As of 1:21 PM on Monday 22 Dec 2014 (Local Time) from KORD Reporting Station
Light Rain Light Rain  
Wind Chill: 28°   Ceiling: 2300
Heat Index: 36°   Visibility: 3mi
Dew Point: 33°   Wind: 10mph
Humidity: 89%   Direction: 90°E
Pressure: 29.74"   Gusts: NA
Location:  41.995°N, 87.8116°W
Report Text: KORD 221921Z 09009KT 3SM -RA BR SCT008 BKN023 OVC035 02/01 A2974 RMK AO2 P0001 T00220006
Loading
Personal Weather Stations






























Interactive Weather Map New forecast layout! Learn more

10-Day Weather Forecast

Advertisements
Track Severe Weather on mobile